sensor_id;sensor_type;location;lat;lon;timestamp;P1;durP1;ratioP1;P2;durP2;ratioP2
15665;SDS011;20725;51.196;3.510;2022-12-19T00:01:34;22.47;;;11.60;;
15665;SDS011;20725;51.196;3.510;2022-12-19T00:04:03;34.10;;;15.17;;
15665;SDS011;20725;51.196;3.510;2022-12-19T00:06:31;22.67;;;14.63;;
15665;SDS011;20725;51.196;3.510;2022-12-19T00:08:58;21.27;;;12.00;;
15665;SDS011;20725;51.196;3.510;2022-12-19T00:11:25;23.23;;;12.80;;
15665;SDS011;20725;51.196;3.510;2022-12-19T00:13:53;18.20;;;11.13;;
15665;SDS011;20725;51.196;3.510;2022-12-19T00:16:21;26.13;;;13.17;;
15665;SDS011;20725;51.196;3.510;2022-12-19T00:18:52;18.17;;;10.07;;
15665;SDS011;20725;51.196;3.510;2022-12-19T00:21:20;20.50;;;10.27;;
15665;SDS011;20725;51.196;3.510;2022-12-19T00:23:48;24.47;;;12.50;;
15665;SDS011;20725;51.196;3.510;2022-12-19T00:26:16;30.70;;;15.57;;
15665;SDS011;20725;51.196;3.510;2022-12-19T00:28:45;32.57;;;17.70;;
15665;SDS011;20725;51.196;3.510;2022-12-19T00:31:14;14.00;;;8.57;;
15665;SDS011;20725;51.196;3.510;2022-12-19T00:33:42;18.23;;;10.83;;
15665;SDS011;20725;51.196;3.510;2022-12-19T00:36:11;13.00;;;8.63;;
15665;SDS011;20725;51.196;3.510;2022-12-19T00:38:40;24.47;;;13.30;;
15665;SDS011;20725;51.196;3.510;2022-12-19T00:41:07;19.40;;;11.97;;
15665;SDS011;20725;51.196;3.510;2022-12-19T00:43:35;19.37;;;12.00;;
15665;SDS011;20725;51.196;3.510;2022-12-19T00:46:02;31.53;;;15.20;;
15665;SDS011;20725;51.196;3.510;2022-12-19T00:48:30;14.47;;;9.40;;
15665;SDS011;20725;51.196;3.510;2022-12-19T00:50:58;14.17;;;8.90;;
15665;SDS011;20725;51.196;3.510;2022-12-19T00:53:27;21.37;;;11.80;;
15665;SDS011;20725;51.196;3.510;2022-12-19T00:55:54;24.33;;;13.30;;
15665;SDS011;20725;51.196;3.510;2022-12-19T00:58:21;15.87;;;9.67;;
15665;SDS011;20725;51.196;3.510;2022-12-19T01:03:24;13.27;;;9.43;;
15665;SDS011;20725;51.196;3.510;2022-12-19T01:05:51;18.60;;;11.30;;
15665;SDS011;20725;51.196;3.510;2022-12-19T01:08:18;16.27;;;9.77;;
15665;SDS011;20725;51.196;3.510;2022-12-19T01:10:47;10.27;;;8.43;;
15665;SDS011;20725;51.196;3.510;2022-12-19T01:13:17;15.60;;;8.90;;
15665;SDS011;20725;51.196;3.510;2022-12-19T01:15:45;19.37;;;11.07;;
15665;SDS011;20725;51.196;3.510;2022-12-19T01:18:12;12.97;;;8.60;;
15665;SDS011;20725;51.196;3.510;2022-12-19T01:20:43;28.00;;;14.30;;
15665;SDS011;20725;51.196;3.510;2022-12-19T01:23:11;21.97;;;12.07;;
15665;SDS011;20725;51.196;3.510;2022-12-19T01:25:39;22.33;;;12.73;;
15665;SDS011;20725;51.196;3.510;2022-12-19T01:28:09;29.03;;;16.13;;
15665;SDS011;20725;51.196;3.510;2022-12-19T01:30:40;23.67;;;13.03;;
15665;SDS011;20725;51.196;3.510;2022-12-19T01:33:07;17.03;;;10.50;;
15665;SDS011;20725;51.196;3.510;2022-12-19T01:35:36;13.67;;;8.10;;
15665;SDS011;20725;51.196;3.510;2022-12-19T01:38:03;17.47;;;9.00;;
15665;SDS011;20725;51.196;3.510;2022-12-19T01:40:30;24.07;;;14.07;;
15665;SDS011;20725;51.196;3.510;2022-12-19T01:42:58;24.63;;;12.90;;
15665;SDS011;20725;51.196;3.510;2022-12-19T01:45:29;27.17;;;16.50;;
15665;SDS011;20725;51.196;3.510;2022-12-19T01:48:00;18.50;;;13.07;;
15665;SDS011;20725;51.196;3.510;2022-12-19T01:50:33;22.63;;;12.30;;
15665;SDS011;20725;51.196;3.510;2022-12-19T01:53:02;20.80;;;11.57;;
15665;SDS011;20725;51.196;3.510;2022-12-19T01:55:31;17.43;;;11.20;;
15665;SDS011;20725;51.196;3.510;2022-12-19T01:57:59;19.43;;;11.83;;
15665;SDS011;20725;51.196;3.510;2022-12-19T02:00:28;15.70;;;11.10;;
15665;SDS011;20725;51.196;3.510;2022-12-19T02:02:57;18.97;;;11.93;;
15665;SDS011;20725;51.196;3.510;2022-12-19T02:05:29;25.97;;;15.20;;
15665;SDS011;20725;51.196;3.510;2022-12-19T02:07:57;23.80;;;14.70;;
15665;SDS011;20725;51.196;3.510;2022-12-19T02:10:25;18.67;;;12.00;;
15665;SDS011;20725;51.196;3.510;2022-12-19T02:12:52;19.77;;;13.63;;
15665;SDS011;20725;51.196;3.510;2022-12-19T02:15:19;18.83;;;12.47;;
15665;SDS011;20725;51.196;3.510;2022-12-19T02:17:58;17.17;;;10.03;;
15665;SDS011;20725;51.196;3.510;2022-12-19T02:32:36;15.37;;;8.70;;
15665;SDS011;20725;51.196;3.510;2022-12-19T02:35:13;29.13;;;13.43;;
15665;SDS011;20725;51.196;3.510;2022-12-19T02:37:48;17.43;;;12.13;;
15665;SDS011;20725;51.196;3.510;2022-12-19T02:40:20;29.47;;;14.97;;
15665;SDS011;20725;51.196;3.510;2022-12-19T02:42:53;25.73;;;15.27;;
15665;SDS011;20725;51.196;3.510;2022-12-19T02:45:24;26.77;;;15.00;;
15665;SDS011;20725;51.196;3.510;2022-12-19T02:47:56;21.57;;;14.67;;
15665;SDS011;20725;51.196;3.510;2022-12-19T02:50:25;28.40;;;15.63;;
15665;SDS011;20725;51.196;3.510;2022-12-19T02:53:00;17.30;;;12.67;;
15665;SDS011;20725;51.196;3.510;2022-12-19T02:55:27;18.47;;;11.90;;
15665;SDS011;20725;51.196;3.510;2022-12-19T02:58:05;25.50;;;16.73;;
15665;SDS011;20725;51.196;3.510;2022-12-19T03:00:47;29.87;;;17.93;;
15665;SDS011;20725;51.196;3.510;2022-12-19T03:03:22;25.47;;;14.50;;
15665;SDS011;20725;51.196;3.510;2022-12-19T03:05:57;15.07;;;10.27;;
15665;SDS011;20725;51.196;3.510;2022-12-19T03:08:32;13.33;;;9.80;;
15665;SDS011;20725;51.196;3.510;2022-12-19T03:11:04;11.07;;;8.57;;
15665;SDS011;20725;51.196;3.510;2022-12-19T03:13:34;10.80;;;9.53;;
15665;SDS011;20725;51.196;3.510;2022-12-19T03:16:04;10.63;;;8.60;;
15665;SDS011;20725;51.196;3.510;2022-12-19T03:18:35;18.50;;;13.97;;
15665;SDS011;20725;51.196;3.510;2022-12-19T03:21:03;14.63;;;10.50;;
15665;SDS011;20725;51.196;3.510;2022-12-19T03:23:36;17.97;;;11.80;;
15665;SDS011;20725;51.196;3.510;2022-12-19T03:26:05;20.43;;;14.53;;
15665;SDS011;20725;51.196;3.510;2022-12-19T03:28:34;15.27;;;10.90;;
15665;SDS011;20725;51.196;3.510;2022-12-19T03:31:05;15.87;;;10.27;;
15665;SDS011;20725;51.196;3.510;2022-12-19T03:33:35;16.13;;;11.37;;
15665;SDS011;20725;51.196;3.510;2022-12-19T03:36:05;20.23;;;11.30;;
15665;SDS011;20725;51.196;3.510;2022-12-19T03:38:35;23.63;;;13.87;;
15665;SDS011;20725;51.196;3.510;2022-12-19T03:41:05;15.67;;;10.87;;
15665;SDS011;20725;51.196;3.510;2022-12-19T03:43:35;21.43;;;13.20;;
15665;SDS011;20725;51.196;3.510;2022-12-19T03:46:04;20.47;;;12.33;;
15665;SDS011;20725;51.196;3.510;2022-12-19T03:48:39;21.90;;;13.57;;
15665;SDS011;20725;51.196;3.510;2022-12-19T03:51:11;13.10;;;9.20;;
15665;SDS011;20725;51.196;3.510;2022-12-19T03:53:50;16.70;;;9.47;;
15665;SDS011;20725;51.196;3.510;2022-12-19T03:56:26;17.27;;;12.07;;
15665;SDS011;20725;51.196;3.510;2022-12-19T03:58:59;14.80;;;11.67;;
15665;SDS011;20725;51.196;3.510;2022-12-19T04:01:31;12.33;;;10.30;;
15665;SDS011;20725;51.196;3.510;2022-12-19T04:04:02;13.20;;;9.50;;
15665;SDS011;20725;51.196;3.510;2022-12-19T04:06:32;16.50;;;9.90;;
15665;SDS011;20725;51.196;3.510;2022-12-19T04:09:00;25.43;;;16.60;;
15665;SDS011;20725;51.196;3.510;2022-12-19T04:11:28;14.13;;;9.70;;
15665;SDS011;20725;51.196;3.510;2022-12-19T04:14:00;13.60;;;9.63;;
15665;SDS011;20725;51.196;3.510;2022-12-19T04:16:31;9.53;;;8.47;;
15665;SDS011;20725;51.196;3.510;2022-12-19T04:19:07;12.30;;;9.47;;
15665;SDS011;20725;51.196;3.510;2022-12-19T04:21:43;11.93;;;8.63;;
15665;SDS011;20725;51.196;3.510;2022-12-19T04:24:15;15.57;;;11.50;;
15665;SDS011;20725;51.196;3.510;2022-12-19T04:26:46;20.97;;;14.07;;
15665;SDS011;20725;51.196;3.510;2022-12-19T04:29:14;16.13;;;12.27;;
15665;SDS011;20725;51.196;3.510;2022-12-19T04:31:42;17.50;;;10.27;;
15665;SDS011;20725;51.196;3.510;2022-12-19T04:34:11;16.00;;;9.73;;
15665;SDS011;20725;51.196;3.510;2022-12-19T04:36:39;16.63;;;12.53;;
15665;SDS011;20725;51.196;3.510;2022-12-19T04:39:06;18.60;;;12.13;;
15665;SDS011;20725;51.196;3.510;2022-12-19T04:41:33;10.77;;;7.90;;
15665;SDS011;20725;51.196;3.510;2022-12-19T04:44:00;14.40;;;8.90;;
15665;SDS011;20725;51.196;3.510;2022-12-19T04:46:27;12.00;;;9.50;;
15665;SDS011;20725;51.196;3.510;2022-12-19T04:48:54;16.80;;;10.17;;
15665;SDS011;20725;51.196;3.510;2022-12-19T04:51:22;14.57;;;9.37;;
15665;SDS011;20725;51.196;3.510;2022-12-19T04:53:49;13.63;;;10.17;;
15665;SDS011;20725;51.196;3.510;2022-12-19T04:56:16;11.30;;;9.30;;
15665;SDS011;20725;51.196;3.510;2022-12-19T04:58:43;18.77;;;12.70;;
15665;SDS011;20725;51.196;3.510;2022-12-19T05:01:10;16.90;;;11.33;;
15665;SDS011;20725;51.196;3.510;2022-12-19T05:03:38;16.07;;;9.17;;
15665;SDS011;20725;51.196;3.510;2022-12-19T05:06:05;17.07;;;12.57;;
15665;SDS011;20725;51.196;3.510;2022-12-19T05:08:36;10.87;;;9.60;;
15665;SDS011;20725;51.196;3.510;2022-12-19T05:11:04;14.53;;;8.50;;
15665;SDS011;20725;51.196;3.510;2022-12-19T05:13:32;7.57;;;6.77;;
15665;SDS011;20725;51.196;3.510;2022-12-19T05:15:59;10.10;;;8.10;;
15665;SDS011;20725;51.196;3.510;2022-12-19T05:18:27;12.73;;;9.27;;
15665;SDS011;20725;51.196;3.510;2022-12-19T05:20:55;10.07;;;7.30;;
15665;SDS011;20725;51.196;3.510;2022-12-19T05:23:22;8.90;;;7.67;;
15665;SDS011;20725;51.196;3.510;2022-12-19T05:25:51;12.80;;;8.97;;
15665;SDS011;20725;51.196;3.510;2022-12-19T05:28:18;10.10;;;8.03;;
15665;SDS011;20725;51.196;3.510;2022-12-19T05:30:45;10.37;;;8.10;;
15665;SDS011;20725;51.196;3.510;2022-12-19T05:33:12;14.37;;;10.60;;
15665;SDS011;20725;51.196;3.510;2022-12-19T05:35:39;10.57;;;8.23;;
15665;SDS011;20725;51.196;3.510;2022-12-19T05:38:06;9.87;;;6.37;;
15665;SDS011;20725;51.196;3.510;2022-12-19T05:40:33;10.57;;;8.00;;
15665;SDS011;20725;51.196;3.510;2022-12-19T05:43:01;9.13;;;8.17;;
15665;SDS011;20725;51.196;3.510;2022-12-19T05:45:28;7.07;;;6.33;;
15665;SDS011;20725;51.196;3.510;2022-12-19T05:47:55;8.23;;;6.97;;
15665;SDS011;20725;51.196;3.510;2022-12-19T05:50:22;9.70;;;7.13;;
15665;SDS011;20725;51.196;3.510;2022-12-19T05:52:49;10.83;;;8.73;;
15665;SDS011;20725;51.196;3.510;2022-12-19T05:55:16;7.50;;;6.77;;
15665;SDS011;20725;51.196;3.510;2022-12-19T05:57:43;10.83;;;8.97;;
15665;SDS011;20725;51.196;3.510;2022-12-19T06:00:12;8.30;;;7.50;;
15665;SDS011;20725;51.196;3.510;2022-12-19T06:02:40;10.77;;;9.20;;
15665;SDS011;20725;51.196;3.510;2022-12-19T06:05:09;10.57;;;7.27;;
15665;SDS011;20725;51.196;3.510;2022-12-19T06:07:36;8.60;;;7.60;;
15665;SDS011;20725;51.196;3.510;2022-12-19T06:10:03;7.90;;;7.07;;
15665;SDS011;20725;51.196;3.510;2022-12-19T06:12:31;7.80;;;7.00;;
15665;SDS011;20725;51.196;3.510;2022-12-19T06:14:58;7.37;;;6.37;;
15665;SDS011;20725;51.196;3.510;2022-12-19T06:17:26;12.77;;;9.57;;
15665;SDS011;20725;51.196;3.510;2022-12-19T06:19:53;8.97;;;8.10;;
15665;SDS011;20725;51.196;3.510;2022-12-19T06:22:20;11.83;;;9.07;;
15665;SDS011;20725;51.196;3.510;2022-12-19T06:24:48;11.07;;;8.90;;
15665;SDS011;20725;51.196;3.510;2022-12-19T06:27:15;9.97;;;7.73;;
15665;SDS011;20725;51.196;3.510;2022-12-19T06:29:42;10.03;;;7.33;;
15665;SDS011;20725;51.196;3.510;2022-12-19T06:32:08;9.37;;;6.70;;
15665;SDS011;20725;51.196;3.510;2022-12-19T06:34:37;11.23;;;8.03;;
15665;SDS011;20725;51.196;3.510;2022-12-19T06:37:04;12.03;;;8.83;;
15665;SDS011;20725;51.196;3.510;2022-12-19T06:39:31;10.17;;;7.10;;
15665;SDS011;20725;51.196;3.510;2022-12-19T06:41:58;7.33;;;6.63;;
15665;SDS011;20725;51.196;3.510;2022-12-19T06:44:42;8.03;;;5.77;;
15665;SDS011;20725;51.196;3.510;2022-12-19T06:47:08;7.87;;;7.00;;
15665;SDS011;20725;51.196;3.510;2022-12-19T06:49:37;9.40;;;8.50;;
15665;SDS011;20725;51.196;3.510;2022-12-19T06:52:04;6.07;;;5.47;;
15665;SDS011;20725;51.196;3.510;2022-12-19T06:54:31;8.50;;;6.00;;
15665;SDS011;20725;51.196;3.510;2022-12-19T06:56:57;8.30;;;7.17;;
15665;SDS011;20725;51.196;3.510;2022-12-19T06:59:25;7.50;;;6.60;;
15665;SDS011;20725;51.196;3.510;2022-12-19T07:01:53;5.60;;;5.10;;
15665;SDS011;20725;51.196;3.510;2022-12-19T07:04:24;8.00;;;6.57;;
15665;SDS011;20725;51.196;3.510;2022-12-19T07:06:56;7.03;;;6.17;;
15665;SDS011;20725;51.196;3.510;2022-12-19T07:09:24;5.70;;;4.73;;
15665;SDS011;20725;51.196;3.510;2022-12-19T07:11:52;5.93;;;5.43;;
15665;SDS011;20725;51.196;3.510;2022-12-19T07:14:18;7.03;;;5.50;;
15665;SDS011;20725;51.196;3.510;2022-12-19T07:16:45;7.93;;;6.07;;
15665;SDS011;20725;51.196;3.510;2022-12-19T07:19:15;5.17;;;4.67;;
15665;SDS011;20725;51.196;3.510;2022-12-19T07:21:42;7.00;;;6.40;;
15665;SDS011;20725;51.196;3.510;2022-12-19T07:24:11;5.87;;;5.37;;
15665;SDS011;20725;51.196;3.510;2022-12-19T07:26:39;5.47;;;5.07;;
15665;SDS011;20725;51.196;3.510;2022-12-19T07:29:07;6.00;;;5.30;;
15665;SDS011;20725;51.196;3.510;2022-12-19T07:31:34;7.07;;;6.37;;
15665;SDS011;20725;51.196;3.510;2022-12-19T07:34:01;5.73;;;5.23;;
15665;SDS011;20725;51.196;3.510;2022-12-19T07:36:28;9.20;;;5.60;;
15665;SDS011;20725;51.196;3.510;2022-12-19T07:38:55;5.80;;;5.30;;
15665;SDS011;20725;51.196;3.510;2022-12-19T07:41:24;5.90;;;5.37;;
15665;SDS011;20725;51.196;3.510;2022-12-19T07:43:51;6.73;;;5.23;;
15665;SDS011;20725;51.196;3.510;2022-12-19T07:46:18;7.10;;;5.93;;
15665;SDS011;20725;51.196;3.510;2022-12-19T07:48:45;8.60;;;6.93;;
15665;SDS011;20725;51.196;3.510;2022-12-19T07:51:12;5.50;;;5.00;;
15665;SDS011;20725;51.196;3.510;2022-12-19T07:53:39;5.37;;;4.97;;
15665;SDS011;20725;51.196;3.510;2022-12-19T07:56:06;7.03;;;4.63;;
15665;SDS011;20725;51.196;3.510;2022-12-19T07:58:35;6.30;;;4.63;;
15665;SDS011;20725;51.196;3.510;2022-12-19T08:01:02;7.93;;;6.27;;
15665;SDS011;20725;51.196;3.510;2022-12-19T08:03:30;5.17;;;4.77;;
15665;SDS011;20725;51.196;3.510;2022-12-19T08:06:00;7.20;;;5.17;;
15665;SDS011;20725;51.196;3.510;2022-12-19T08:08:29;6.23;;;5.63;;
15665;SDS011;20725;51.196;3.510;2022-12-19T08:11:04;5.57;;;5.00;;
15665;SDS011;20725;51.196;3.510;2022-12-19T08:13:31;6.03;;;5.43;;
15665;SDS011;20725;51.196;3.510;2022-12-19T08:16:00;6.07;;;5.53;;
15665;SDS011;20725;51.196;3.510;2022-12-19T08:18:27;5.47;;;4.87;;
15665;SDS011;20725;51.196;3.510;2022-12-19T08:20:54;5.17;;;4.67;;
15665;SDS011;20725;51.196;3.510;2022-12-19T08:23:21;5.43;;;4.93;;
15665;SDS011;20725;51.196;3.510;2022-12-19T08:25:48;7.23;;;6.00;;
15665;SDS011;20725;51.196;3.510;2022-12-19T08:28:23;4.80;;;4.40;;
15665;SDS011;20725;51.196;3.510;2022-12-19T08:30:50;4.70;;;4.17;;
15665;SDS011;20725;51.196;3.510;2022-12-19T08:33:18;4.60;;;4.20;;
15665;SDS011;20725;51.196;3.510;2022-12-19T08:35:45;4.73;;;4.20;;
15665;SDS011;20725;51.196;3.510;2022-12-19T08:38:12;5.50;;;5.00;;
15665;SDS011;20725;51.196;3.510;2022-12-19T08:40:40;4.73;;;4.33;;
15665;SDS011;20725;51.196;3.510;2022-12-19T08:43:07;5.43;;;4.93;;
15665;SDS011;20725;51.196;3.510;2022-12-19T08:45:33;5.13;;;4.17;;
15665;SDS011;20725;51.196;3.510;2022-12-19T08:48:00;5.23;;;4.80;;
15665;SDS011;20725;51.196;3.510;2022-12-19T08:50:29;5.03;;;4.53;;
15665;SDS011;20725;51.196;3.510;2022-12-19T08:52:55;4.37;;;4.07;;
15665;SDS011;20725;51.196;3.510;2022-12-19T08:55:22;8.80;;;4.20;;
15665;SDS011;20725;51.196;3.510;2022-12-19T08:57:49;7.67;;;4.67;;
15665;SDS011;20725;51.196;3.510;2022-12-19T09:00:16;5.40;;;4.03;;
15665;SDS011;20725;51.196;3.510;2022-12-19T09:02:43;6.20;;;5.43;;
15665;SDS011;20725;51.196;3.510;2022-12-19T09:05:10;5.70;;;4.00;;
15665;SDS011;20725;51.196;3.510;2022-12-19T09:07:38;4.33;;;3.93;;
15665;SDS011;20725;51.196;3.510;2022-12-19T09:10:06;5.77;;;3.97;;
15665;SDS011;20725;51.196;3.510;2022-12-19T09:12:33;6.23;;;4.87;;
15665;SDS011;20725;51.196;3.510;2022-12-19T09:15:00;4.23;;;3.90;;
15665;SDS011;20725;51.196;3.510;2022-12-19T09:17:27;5.73;;;4.97;;
15665;SDS011;20725;51.196;3.510;2022-12-19T09:19:53;4.97;;;4.57;;
15665;SDS011;20725;51.196;3.510;2022-12-19T09:22:20;4.20;;;3.87;;
15665;SDS011;20725;51.196;3.510;2022-12-19T09:24:49;5.17;;;4.50;;
15665;SDS011;20725;51.196;3.510;2022-12-19T09:27:16;7.03;;;4.27;;
15665;SDS011;20725;51.196;3.510;2022-12-19T09:29:43;5.77;;;5.17;;
15665;SDS011;20725;51.196;3.510;2022-12-19T09:32:10;5.07;;;4.67;;
15665;SDS011;20725;51.196;3.510;2022-12-19T09:34:37;4.70;;;4.30;;
15665;SDS011;20725;51.196;3.510;2022-12-19T09:37:04;6.33;;;5.50;;
15665;SDS011;20725;51.196;3.510;2022-12-19T09:39:32;4.90;;;4.50;;
15665;SDS011;20725;51.196;3.510;2022-12-19T09:42:13;5.27;;;4.40;;
15665;SDS011;20725;51.196;3.510;2022-12-19T09:44:56;5.13;;;4.63;;
15665;SDS011;20725;51.196;3.510;2022-12-19T09:47:32;6.03;;;5.27;;
15665;SDS011;20725;51.196;3.510;2022-12-19T09:50:13;7.10;;;5.90;;
15665;SDS011;20725;51.196;3.510;2022-12-19T09:52:53;6.17;;;5.33;;
15665;SDS011;20725;51.196;3.510;2022-12-19T09:55:27;7.90;;;5.40;;
15665;SDS011;20725;51.196;3.510;2022-12-19T09:58:00;4.77;;;4.40;;
15665;SDS011;20725;51.196;3.510;2022-12-19T10:00:34;7.93;;;6.90;;
15665;SDS011;20725;51.196;3.510;2022-12-19T10:03:07;7.47;;;6.73;;
15665;SDS011;20725;51.196;3.510;2022-12-19T10:05:44;11.63;;;7.33;;
15665;SDS011;20725;51.196;3.510;2022-12-19T10:08:15;7.80;;;7.03;;
15665;SDS011;20725;51.196;3.510;2022-12-19T10:10:46;8.47;;;6.50;;
15665;SDS011;20725;51.196;3.510;2022-12-19T10:13:24;7.37;;;5.60;;
15665;SDS011;20725;51.196;3.510;2022-12-19T10:16:06;7.33;;;6.53;;
15665;SDS011;20725;51.196;3.510;2022-12-19T10:18:41;6.97;;;6.00;;
15665;SDS011;20725;51.196;3.510;2022-12-19T10:21:20;5.70;;;5.10;;
15665;SDS011;20725;51.196;3.510;2022-12-19T10:24:03;9.20;;;7.63;;
15665;SDS011;20725;51.196;3.510;2022-12-19T10:26:51;9.60;;;6.43;;
15665;SDS011;20725;51.196;3.510;2022-12-19T10:32:25;6.57;;;5.83;;
15665;SDS011;20725;51.196;3.510;2022-12-19T10:35:00;8.20;;;7.40;;
15665;SDS011;20725;51.196;3.510;2022-12-19T10:37:28;5.97;;;5.47;;
15665;SDS011;20725;51.196;3.510;2022-12-19T10:40:04;8.67;;;7.50;;
15665;SDS011;20725;51.196;3.510;2022-12-19T10:42:40;7.60;;;6.47;;
15665;SDS011;20725;51.196;3.510;2022-12-19T10:45:14;8.17;;;7.27;;
15665;SDS011;20725;51.196;3.510;2022-12-19T10:47:44;8.33;;;6.13;;
15665;SDS011;20725;51.196;3.510;2022-12-19T10:50:13;7.10;;;6.43;;
15665;SDS011;20725;51.196;3.510;2022-12-19T10:52:49;10.10;;;8.63;;
15665;SDS011;20725;51.196;3.510;2022-12-19T10:55:23;7.90;;;6.63;;
15665;SDS011;20725;51.196;3.510;2022-12-19T10:58:10;7.87;;;6.80;;
15665;SDS011;20725;51.196;3.510;2022-12-19T11:00:44;7.80;;;6.87;;
15665;SDS011;20725;51.196;3.510;2022-12-19T11:03:21;6.57;;;5.97;;
15665;SDS011;20725;51.196;3.510;2022-12-19T11:05:49;8.07;;;6.67;;
15665;SDS011;20725;51.196;3.510;2022-12-19T11:08:18;8.57;;;6.20;;
15665;SDS011;20725;51.196;3.510;2022-12-19T11:10:49;5.17;;;4.77;;
15665;SDS011;20725;51.196;3.510;2022-12-19T11:13:18;6.97;;;5.47;;
15665;SDS011;20725;51.196;3.510;2022-12-19T11:15:46;6.60;;;5.83;;
15665;SDS011;20725;51.196;3.510;2022-12-19T11:18:14;10.67;;;6.13;;
15665;SDS011;20725;51.196;3.510;2022-12-19T11:20:45;7.20;;;6.50;;
15665;SDS011;20725;51.196;3.510;2022-12-19T11:23:20;5.80;;;5.23;;
15665;SDS011;20725;51.196;3.510;2022-12-19T11:25:54;6.27;;;5.67;;
15665;SDS011;20725;51.196;3.510;2022-12-19T11:28:24;8.30;;;6.10;;
15665;SDS011;20725;51.196;3.510;2022-12-19T11:31:02;7.23;;;5.37;;
15665;SDS011;20725;51.196;3.510;2022-12-19T11:33:32;7.27;;;4.10;;
15665;SDS011;20725;51.196;3.510;2022-12-19T11:36:01;5.03;;;4.57;;
15665;SDS011;20725;51.196;3.510;2022-12-19T11:38:38;5.80;;;5.33;;
15665;SDS011;20725;51.196;3.510;2022-12-19T11:41:11;7.90;;;4.37;;
15665;SDS011;20725;51.196;3.510;2022-12-19T11:43:42;6.27;;;5.50;;
15665;SDS011;20725;51.196;3.510;2022-12-19T11:46:22;5.33;;;4.93;;
15665;SDS011;20725;51.196;3.510;2022-12-19T11:49:03;5.90;;;5.30;;
15665;SDS011;20725;51.196;3.510;2022-12-19T11:51:38;5.07;;;4.57;;
15665;SDS011;20725;51.196;3.510;2022-12-19T11:54:12;7.27;;;4.60;;
15665;SDS011;20725;51.196;3.510;2022-12-19T11:56:43;5.00;;;4.60;;
15665;SDS011;20725;51.196;3.510;2022-12-19T11:59:11;5.77;;;5.20;;
15665;SDS011;20725;51.196;3.510;2022-12-19T12:01:50;5.43;;;4.77;;
15665;SDS011;20725;51.196;3.510;2022-12-19T12:04:37;4.00;;;3.63;;
15665;SDS011;20725;51.196;3.510;2022-12-19T12:07:23;6.07;;;5.50;;
15665;SDS011;20725;51.196;3.510;2022-12-19T12:09:59;4.13;;;3.73;;
15665;SDS011;20725;51.196;3.510;2022-12-19T12:12:38;5.23;;;3.77;;
15665;SDS011;20725;51.196;3.510;2022-12-19T12:15:26;5.17;;;4.67;;
15665;SDS011;20725;51.196;3.510;2022-12-19T12:18:11;5.57;;;4.70;;
15665;SDS011;20725;51.196;3.510;2022-12-19T12:20:49;5.57;;;4.60;;
15665;SDS011;20725;51.196;3.510;2022-12-19T12:23:27;6.20;;;5.03;;
15665;SDS011;20725;51.196;3.510;2022-12-19T12:26:01;5.60;;;4.57;;
15665;SDS011;20725;51.196;3.510;2022-12-19T12:28:40;4.87;;;4.47;;
15665;SDS011;20725;51.196;3.510;2022-12-19T12:37:23;8.43;;;4.33;;
15665;SDS011;20725;51.196;3.510;2022-12-19T12:40:13;4.93;;;4.37;;
15665;SDS011;20725;51.196;3.510;2022-12-19T12:42:51;4.00;;;3.60;;
15665;SDS011;20725;51.196;3.510;2022-12-19T12:45:30;4.23;;;3.80;;
15665;SDS011;20725;51.196;3.510;2022-12-19T12:48:01;4.00;;;3.70;;
15665;SDS011;20725;51.196;3.510;2022-12-19T12:50:31;4.57;;;4.23;;
15665;SDS011;20725;51.196;3.510;2022-12-19T12:53:00;3.20;;;3.00;;
15665;SDS011;20725;51.196;3.510;2022-12-19T12:55:34;3.93;;;3.63;;
15665;SDS011;20725;51.196;3.510;2022-12-19T12:58:04;4.97;;;3.60;;
15665;SDS011;20725;51.196;3.510;2022-12-19T13:00:32;4.50;;;4.10;;
15665;SDS011;20725;51.196;3.510;2022-12-19T13:03:01;5.63;;;4.03;;
15665;SDS011;20725;51.196;3.510;2022-12-19T13:05:38;8.53;;;4.20;;
15665;SDS011;20725;51.196;3.510;2022-12-19T13:08:30;5.10;;;4.33;;
15665;SDS011;20725;51.196;3.510;2022-12-19T13:11:02;4.40;;;4.00;;
15665;SDS011;20725;51.196;3.510;2022-12-19T13:13:51;4.37;;;3.97;;
15665;SDS011;20725;51.196;3.510;2022-12-19T13:19:19;4.40;;;3.87;;
15665;SDS011;20725;51.196;3.510;2022-12-19T13:24:48;3.63;;;3.33;;
15665;SDS011;20725;51.196;3.510;2022-12-19T13:30:12;4.33;;;3.97;;
15665;SDS011;20725;51.196;3.510;2022-12-19T13:35:35;4.13;;;3.80;;
15665;SDS011;20725;51.196;3.510;2022-12-19T13:40:59;3.10;;;2.90;;
15665;SDS011;20725;51.196;3.510;2022-12-19T13:43:48;6.30;;;3.60;;
15665;SDS011;20725;51.196;3.510;2022-12-19T13:46:20;4.73;;;3.47;;
15665;SDS011;20725;51.196;3.510;2022-12-19T13:48:51;4.00;;;3.70;;
15665;SDS011;20725;51.196;3.510;2022-12-19T13:51:20;3.83;;;3.40;;
15665;SDS011;20725;51.196;3.510;2022-12-19T13:53:50;3.90;;;3.50;;
15665;SDS011;20725;51.196;3.510;2022-12-19T13:56:18;3.47;;;3.17;;
15665;SDS011;20725;51.196;3.510;2022-12-19T13:58:46;3.13;;;2.93;;
15665;SDS011;20725;51.196;3.510;2022-12-19T14:01:20;4.20;;;3.70;;
15665;SDS011;20725;51.196;3.510;2022-12-19T14:03:52;5.10;;;3.93;;
15665;SDS011;20725;51.196;3.510;2022-12-19T14:06:21;5.50;;;4.27;;
15665;SDS011;20725;51.196;3.510;2022-12-19T14:08:51;6.37;;;3.87;;
15665;SDS011;20725;51.196;3.510;2022-12-19T14:11:19;3.97;;;3.67;;
15665;SDS011;20725;51.196;3.510;2022-12-19T14:13:47;3.80;;;3.50;;
15665;SDS011;20725;51.196;3.510;2022-12-19T14:16:37;4.80;;;4.40;;
15665;SDS011;20725;51.196;3.510;2022-12-19T14:19:14;4.13;;;3.67;;
15665;SDS011;20725;51.196;3.510;2022-12-19T14:21:43;3.93;;;3.50;;
15665;SDS011;20725;51.196;3.510;2022-12-19T14:24:13;4.93;;;4.30;;
15665;SDS011;20725;51.196;3.510;2022-12-19T14:26:42;6.67;;;4.00;;
15665;SDS011;20725;51.196;3.510;2022-12-19T14:29:13;4.27;;;3.40;;
15665;SDS011;20725;51.196;3.510;2022-12-19T14:31:45;7.30;;;4.37;;
15665;SDS011;20725;51.196;3.510;2022-12-19T14:34:16;4.33;;;3.87;;
15665;SDS011;20725;51.196;3.510;2022-12-19T14:36:46;5.37;;;4.53;;
15665;SDS011;20725;51.196;3.510;2022-12-19T14:39:17;4.70;;;3.80;;
15665;SDS011;20725;51.196;3.510;2022-12-19T14:41:46;4.80;;;4.07;;
15665;SDS011;20725;51.196;3.510;2022-12-19T14:44:50;3.27;;;3.07;;
15665;SDS011;20725;51.196;3.510;2022-12-19T14:47:22;4.87;;;3.50;;
15665;SDS011;20725;51.196;3.510;2022-12-19T14:49:50;4.17;;;3.77;;
15665;SDS011;20725;51.196;3.510;2022-12-19T14:57:56;4.03;;;3.63;;
15665;SDS011;20725;51.196;3.510;2022-12-19T15:00:32;3.57;;;3.30;;
15665;SDS011;20725;51.196;3.510;2022-12-19T15:03:11;7.27;;;3.97;;
15665;SDS011;20725;51.196;3.510;2022-12-19T15:05:43;4.97;;;3.97;;
15665;SDS011;20725;51.196;3.510;2022-12-19T15:08:10;4.80;;;3.43;;
15665;SDS011;20725;51.196;3.510;2022-12-19T15:10:37;3.97;;;3.67;;
15665;SDS011;20725;51.196;3.510;2022-12-19T15:15:51;5.03;;;3.57;;
15665;SDS011;20725;51.196;3.510;2022-12-19T15:18:24;7.60;;;4.97;;
15665;SDS011;20725;51.196;3.510;2022-12-19T15:20:54;4.70;;;3.43;;
15665;SDS011;20725;51.196;3.510;2022-12-19T15:23:23;4.20;;;3.80;;
15665;SDS011;20725;51.196;3.510;2022-12-19T15:25:50;6.10;;;4.77;;
15665;SDS011;20725;51.196;3.510;2022-12-19T15:28:19;4.30;;;3.33;;
15665;SDS011;20725;51.196;3.510;2022-12-19T15:30:49;3.93;;;3.63;;
15665;SDS011;20725;51.196;3.510;2022-12-19T15:33:21;5.63;;;4.00;;
15665;SDS011;20725;51.196;3.510;2022-12-19T15:35:48;7.10;;;4.77;;
15665;SDS011;20725;51.196;3.510;2022-12-19T15:38:15;4.10;;;3.67;;
15665;SDS011;20725;51.196;3.510;2022-12-19T15:40:42;4.90;;;4.20;;
15665;SDS011;20725;51.196;3.510;2022-12-19T15:43:11;5.20;;;4.00;;
15665;SDS011;20725;51.196;3.510;2022-12-19T15:45:42;4.47;;;3.77;;